createdAt,value
2016-11-10T00:00:52.366Z,1004.05
2016-11-10T00:01:52.986Z,1004.05
2016-11-10T00:02:53.608Z,1004.06
2016-11-10T00:03:54.233Z,1004.05
2016-11-10T00:04:54.844Z,1004.07
2016-11-10T00:05:55.446Z,1004.04
2016-11-10T00:06:56.060Z,1004.07
2016-11-10T00:07:56.711Z,1004.06
2016-11-10T00:08:57.334Z,1004.09
2016-11-10T00:09:57.956Z,1004.05
2016-11-10T00:10:58.557Z,1004.07
2016-11-10T00:11:59.159Z,1004.04
2016-11-10T00:12:59.774Z,1003.99
2016-11-10T00:14:00.394Z,1004
2016-11-10T00:15:01.001Z,1004.03
2016-11-10T00:16:01.642Z,1004.06
2016-11-10T00:17:02.260Z,1004.08
2016-11-10T00:18:02.880Z,1004.05
2016-11-10T00:19:03.481Z,1004.08
2016-11-10T00:20:04.105Z,1004.09
2016-11-10T00:21:04.708Z,1004.09
2016-11-10T00:22:05.316Z,1004.06
2016-11-10T00:23:05.935Z,1004.1
2016-11-10T00:24:06.572Z,1004.1
2016-11-10T00:25:07.173Z,1004.12
2016-11-10T00:26:07.790Z,1004.07
2016-11-10T00:27:08.427Z,1004.07
2016-11-10T00:28:09.034Z,1004
2016-11-10T00:29:09.652Z,1004.05
2016-11-10T00:30:10.263Z,1004.02
2016-11-10T00:31:10.867Z,1004
2016-11-10T00:32:11.493Z,1004.05
2016-11-10T00:33:12.183Z,1004
2016-11-10T00:34:12.791Z,1004.03
2016-11-10T00:35:13.399Z,1004.05
2016-11-10T00:36:14.008Z,1004.03
2016-11-10T00:37:14.617Z,1004.01
2016-11-10T00:38:15.224Z,1004.05
2016-11-10T00:39:15.843Z,1004.04
2016-11-10T00:40:16.471Z,1004.04
2016-11-10T00:41:17.078Z,1004
2016-11-10T00:42:17.691Z,1004.03
2016-11-10T00:43:18.294Z,1004.04
2016-11-10T00:44:18.907Z,1004.04
2016-11-10T00:45:19.520Z,1004.02
2016-11-10T00:46:20.118Z,1004.05
2016-11-10T00:47:20.734Z,1004
2016-11-10T00:48:21.349Z,1004.04
2016-11-10T00:49:22.014Z,1004.03
2016-11-10T00:50:22.613Z,1003.97
2016-11-10T00:51:23.313Z,1004.02
2016-11-10T00:52:23.930Z,1004.05
2016-11-10T00:53:24.593Z,1003.99
2016-11-10T00:54:25.201Z,1004.03
2016-11-10T00:55:25.822Z,1004.05
2016-11-10T00:56:26.429Z,1004.07
2016-11-10T00:57:27.026Z,1004.02
2016-11-10T00:58:27.679Z,1004.02
2016-11-10T00:59:28.285Z,1004.04
2016-11-10T01:00:28.932Z,1004.07
2016-11-10T01:01:29.548Z,1004.07
2016-11-10T01:02:30.152Z,1004.05
2016-11-10T01:03:30.767Z,1004.05
2016-11-10T01:04:31.389Z,1004.07
2016-11-10T01:05:31.998Z,1004.02
2016-11-10T01:06:32.611Z,1004.03
2016-11-10T01:07:33.220Z,1004.03
2016-11-10T01:08:33.832Z,1004.02
2016-11-10T01:09:34.438Z,1003.98
2016-11-10T01:10:35.059Z,1004.04
2016-11-10T01:11:35.673Z,1004.04
2016-11-10T01:12:36.289Z,1004.04
2016-11-10T01:13:36.890Z,1004.01
2016-11-10T01:14:37.498Z,1004
2016-11-10T01:15:38.115Z,1004.04
2016-11-10T01:16:38.723Z,1004.05
2016-11-10T01:17:39.361Z,1004.04
2016-11-10T01:18:39.975Z,1004.05
2016-11-10T01:19:40.582Z,1004.03
2016-11-10T01:20:41.199Z,1004.05
2016-11-10T01:21:41.820Z,1004.05
2016-11-10T01:22:42.429Z,1004
2016-11-10T01:23:43.048Z,1003.99
2016-11-10T01:24:43.657Z,1004.02
2016-11-10T01:25:44.266Z,1003.97
2016-11-10T01:26:44.879Z,1004.01
2016-11-10T01:27:45.480Z,1003.97
2016-11-10T01:28:46.096Z,1004.01
2016-11-10T01:29:46.706Z,1004
2016-11-10T01:30:47.331Z,1003.99
2016-11-10T01:31:47.940Z,1004
2016-11-10T01:32:48.548Z,1003.98
2016-11-10T01:33:49.159Z,1004.01
2016-11-10T01:34:49.765Z,1003.99
2016-11-10T01:35:50.375Z,1003.95
2016-11-10T01:36:50.991Z,1003.93
2016-11-10T01:37:51.618Z,1003.94
2016-11-10T01:38:52.250Z,1003.94
2016-11-10T01:39:52.858Z,1003.99
2016-11-10T01:40:53.460Z,1003.99
2016-11-10T01:41:54.063Z,1003.97
2016-11-10T01:42:54.701Z,1004
2016-11-10T01:43:55.308Z,1003.99
2016-11-10T01:44:55.927Z,1003.96
2016-11-10T01:45:56.531Z,1003.98
2016-11-10T01:46:57.137Z,1004
2016-11-10T01:47:57.753Z,1004.02
2016-11-10T01:48:58.365Z,1004.02
2016-11-10T01:49:58.965Z,1004.03
2016-11-10T01:50:59.575Z,1004.03
2016-11-10T01:52:00.190Z,1004.06
2016-11-10T01:53:00.798Z,1004.03
2016-11-10T01:54:01.494Z,1004.01
2016-11-10T01:55:02.093Z,1004.01
2016-11-10T01:56:02.704Z,1004.02
2016-11-10T01:57:03.340Z,1003.99
2016-11-10T01:58:03.943Z,1003.98
2016-11-10T01:59:04.564Z,1004
2016-11-10T02:00:05.166Z,1004
2016-11-10T02:01:05.775Z,1004.04
2016-11-10T02:02:06.384Z,1004.02
2016-11-10T02:03:06.994Z,1004.04
2016-11-10T02:04:07.608Z,1003.98
2016-11-10T02:05:08.226Z,1004.04
2016-11-10T02:06:08.831Z,1004
2016-11-10T02:07:09.455Z,1003.99
2016-11-10T02:08:10.060Z,1003.97
2016-11-10T02:09:10.674Z,1004.03
2016-11-10T02:10:11.288Z,1003.93
2016-11-10T02:11:11.897Z,1003.94
2016-11-10T02:12:12.514Z,1003.94
2016-11-10T02:13:13.118Z,1003.94
2016-11-10T02:14:13.726Z,1003.95
2016-11-10T02:15:14.361Z,1003.94
2016-11-10T02:16:14.966Z,1003.96
2016-11-10T02:17:15.585Z,1003.93
2016-11-10T02:18:16.209Z,1003.94
2016-11-10T02:19:16.846Z,1003.85
2016-11-10T02:20:17.572Z,1003.89
2016-11-10T02:21:18.211Z,1003.9
2016-11-10T02:22:18.820Z,1003.9
2016-11-10T02:23:19.434Z,1003.93
2016-11-10T02:24:20.037Z,1003.96
2016-11-10T02:25:20.657Z,1003.93
2016-11-10T02:26:21.279Z,1003.91
2016-11-10T02:27:21.906Z,1003.92
2016-11-10T02:28:22.538Z,1003.93
2016-11-10T02:29:23.155Z,1003.89
2016-11-10T02:30:23.772Z,1003.94
2016-11-10T02:31:24.388Z,1003.91
2016-11-10T02:32:25.011Z,1003.91
2016-11-10T02:33:25.713Z,1003.85
2016-11-10T02:34:26.369Z,1003.9
2016-11-10T02:35:26.983Z,1003.91
2016-11-10T02:36:27.595Z,1003.89
2016-11-10T02:37:28.247Z,1003.86
2016-11-10T02:38:28.847Z,1003.9
2016-11-10T02:39:29.507Z,1003.87
2016-11-10T02:40:30.123Z,1003.89
2016-11-10T02:41:30.727Z,1003.87
2016-11-10T02:42:31.359Z,1003.86
2016-11-10T02:43:31.963Z,1003.89
2016-11-10T02:44:32.572Z,1003.9
2016-11-10T02:45:33.196Z,1003.87
2016-11-10T02:46:33.808Z,1003.91
2016-11-10T02:47:34.426Z,1003.91
2016-11-10T02:48:35.058Z,1003.93
2016-11-10T02:49:35.671Z,1003.97
2016-11-10T02:50:36.293Z,1003.94
2016-11-10T02:51:36.904Z,1003.96
2016-11-10T02:52:37.507Z,1004
2016-11-10T02:53:38.147Z,1003.96
2016-11-10T02:54:38.750Z,1003.98
2016-11-10T02:55:39.354Z,1003.92
2016-11-10T02:56:40.019Z,1003.93
2016-11-10T02:57:40.637Z,1003.96
2016-11-10T02:58:41.250Z,1003.95
2016-11-10T02:59:41.956Z,1003.99
2016-11-10T03:00:42.560Z,1003.97
2016-11-10T03:01:43.168Z,1003.94
2016-11-10T03:02:43.772Z,1004.02
2016-11-10T03:03:44.382Z,1004.03
2016-11-10T03:04:44.992Z,1004.05
2016-11-10T03:05:45.599Z,1004.04
2016-11-10T03:06:46.225Z,1004
2016-11-10T03:07:46.821Z,1004.06
2016-11-10T03:08:47.422Z,1004.02
2016-11-10T03:09:48.040Z,1004.01
2016-11-10T03:10:48.643Z,1004.04
2016-11-10T03:11:49.262Z,1003.99
2016-11-10T03:12:49.863Z,1004.03
2016-11-10T03:13:50.462Z,1004.02
2016-11-10T03:14:51.068Z,1004.05
2016-11-10T03:15:51.679Z,1004.04
2016-11-10T03:16:52.279Z,1004.04
2016-11-10T03:17:52.902Z,1004.03
2016-11-10T03:18:53.507Z,1004.04
2016-11-10T03:19:54.107Z,1004.04
2016-11-10T03:20:54.729Z,1004.05
2016-11-10T03:21:55.347Z,1004.03
2016-11-10T03:22:55.973Z,1004.02
2016-11-10T03:23:56.594Z,1004.03
2016-11-10T03:24:57.211Z,1004.02
2016-11-10T03:25:57.830Z,1004
2016-11-10T03:26:58.430Z,1004.04
2016-11-10T03:27:59.054Z,1004.02
2016-11-10T03:28:59.669Z,1004.01
2016-11-10T03:30:00.280Z,1004.06
2016-11-10T03:31:00.897Z,1004.05
2016-11-10T03:32:01.518Z,1004.03
2016-11-10T03:33:02.165Z,1004.07
2016-11-10T03:34:02.806Z,1004.08
2016-11-10T03:35:03.420Z,1004.05
2016-11-10T03:36:04.047Z,1004.08
2016-11-10T03:37:04.653Z,1004.09
2016-11-10T03:38:05.265Z,1004.04
2016-11-10T03:39:05.873Z,1004.08
2016-11-10T03:40:06.490Z,1004.11
2016-11-10T03:41:07.115Z,1004.11
2016-11-10T03:42:07.742Z,1004.11
2016-11-10T03:43:08.341Z,1004.11
2016-11-10T03:44:08.949Z,1004.1
2016-11-10T03:45:09.564Z,1004.13
2016-11-10T03:46:10.186Z,1004.15
2016-11-10T03:47:10.805Z,1004.15
2016-11-10T03:48:11.417Z,1004.19
2016-11-10T03:49:12.099Z,1004.15
2016-11-10T03:50:12.718Z,1004.17
2016-11-10T03:51:13.341Z,1004.18
2016-11-10T03:52:13.960Z,1004.2
2016-11-10T03:53:14.604Z,1004.2
2016-11-10T03:54:15.215Z,1004.17
2016-11-10T03:55:15.824Z,1004.16
2016-11-10T03:56:16.443Z,1004.17
2016-11-10T03:57:17.066Z,1004.18
2016-11-10T03:58:17.668Z,1004.22
2016-11-10T03:59:18.277Z,1004.17
2016-11-10T04:00:18.875Z,1004.17
2016-11-10T04:01:19.557Z,1004.19
2016-11-10T04:02:20.267Z,1004.21
2016-11-10T04:03:20.877Z,1004.21
2016-11-10T04:04:21.500Z,1004.21
2016-11-10T04:05:22.142Z,1004.19
2016-11-10T04:06:22.771Z,1004.19
2016-11-10T04:07:23.428Z,1004.23
2016-11-10T04:08:24.040Z,1004.19
2016-11-10T04:09:24.648Z,1004.21
2016-11-10T04:10:25.266Z,1004.23
2016-11-10T04:11:25.882Z,1004.2
2016-11-10T04:12:26.512Z,1004.21
2016-11-10T04:13:27.121Z,1004.23
2016-11-10T04:14:27.753Z,1004.21
2016-11-10T04:15:28.371Z,1004.19
2016-11-10T04:16:28.987Z,1004.18
2016-11-10T04:17:29.594Z,1004.18
2016-11-10T04:18:30.193Z,1004.17
2016-11-10T04:19:30.788Z,1004.17
2016-11-10T04:20:31.396Z,1004.16
2016-11-10T04:21:32.003Z,1004.23
2016-11-10T04:22:32.618Z,1004.19
2016-11-10T04:23:33.239Z,1004.24
2016-11-10T04:24:33.857Z,1004.2
2016-11-10T04:25:34.484Z,1004.23
2016-11-10T04:26:35.101Z,1004.19
2016-11-10T04:27:35.722Z,1004.22
2016-11-10T04:28:36.338Z,1004.19
2016-11-10T04:29:36.949Z,1004.2
2016-11-10T04:30:37.569Z,1004.13
2016-11-10T04:31:38.299Z,1004.18
2016-11-10T04:32:38.915Z,1004.17
2016-11-10T04:33:39.524Z,1004.17
2016-11-10T04:34:40.136Z,1004.17
2016-11-10T04:35:40.763Z,1004.16
2016-11-10T04:36:41.376Z,1004.2
2016-11-10T04:37:42.008Z,1004.15
2016-11-10T04:38:42.616Z,1004.22
2016-11-10T04:39:43.222Z,1004.21
2016-11-10T04:40:43.848Z,1004.21
2016-11-10T04:41:44.464Z,1004.22
2016-11-10T04:42:45.094Z,1004.22
2016-11-10T04:43:45.703Z,1004.22
2016-11-10T04:44:46.325Z,1004.21
2016-11-10T04:45:46.953Z,1004.2
2016-11-10T04:46:47.553Z,1004.22
2016-11-10T04:47:48.163Z,1004.2
2016-11-10T04:48:48.778Z,1004.22
2016-11-10T04:49:49.391Z,1004.27
2016-11-10T04:50:50.025Z,1004.24
2016-11-10T04:51:50.633Z,1004.29
2016-11-10T04:52:51.268Z,1004.29
2016-11-10T04:53:51.892Z,1004.31
2016-11-10T04:54:52.500Z,1004.27
2016-11-10T04:55:53.131Z,1004.27
2016-11-10T04:56:53.733Z,1004.31
2016-11-10T04:57:54.332Z,1004.3
2016-11-10T04:58:54.951Z,1004.31
2016-11-10T04:59:55.682Z,1004.3
2016-11-10T05:00:56.425Z,1004.29
2016-11-10T05:01:57.040Z,1004.3
2016-11-10T05:02:57.713Z,1004.32
2016-11-10T05:03:58.378Z,1004.31
2016-11-10T05:04:58.987Z,1004.33
2016-11-10T05:05:59.634Z,1004.33
2016-11-10T05:07:00.237Z,1004.34
2016-11-10T05:08:00.856Z,1004.36
2016-11-10T05:09:01.477Z,1004.37
2016-11-10T05:10:02.093Z,1004.35
2016-11-10T05:11:02.723Z,1004.39
2016-11-10T05:12:03.334Z,1004.38
2016-11-10T05:13:03.957Z,1004.37
2016-11-10T05:14:04.584Z,1004.45
2016-11-10T05:15:05.276Z,1004.44
2016-11-10T05:16:05.884Z,1004.47
2016-11-10T05:17:06.485Z,1004.39
2016-11-10T05:18:07.101Z,1004.44
2016-11-10T05:19:07.730Z,1004.48
2016-11-10T05:20:08.350Z,1004.44
2016-11-10T05:21:08.973Z,1004.44
2016-11-10T05:22:09.577Z,1004.45
2016-11-10T05:23:10.169Z,1004.49
2016-11-10T05:24:10.787Z,1004.46
2016-11-10T05:25:11.397Z,1004.45
2016-11-10T05:26:12.033Z,1004.47
2016-11-10T05:27:12.653Z,1004.54
2016-11-10T05:28:13.274Z,1004.56
2016-11-10T05:29:13.920Z,1004.52
2016-11-10T05:30:14.537Z,1004.5
2016-11-10T05:31:15.158Z,1004.52
2016-11-10T05:32:15.770Z,1004.53
2016-11-10T05:33:16.404Z,1004.56
2016-11-10T05:34:17.062Z,1004.54
2016-11-10T05:35:17.682Z,1004.55
2016-11-10T05:36:18.294Z,1004.58
2016-11-10T05:37:18.914Z,1004.55
2016-11-10T05:38:19.532Z,1004.59
2016-11-10T05:39:20.136Z,1004.6
2016-11-10T05:40:20.733Z,1004.62
2016-11-10T05:41:21.346Z,1004.67
2016-11-10T05:42:21.972Z,1004.65
2016-11-10T05:43:22.610Z,1004.62
2016-11-10T05:44:23.236Z,1004.68
2016-11-10T05:45:23.874Z,1004.68
2016-11-10T05:46:24.488Z,1004.71
2016-11-10T05:47:25.118Z,1004.74
2016-11-10T05:48:25.719Z,1004.75
2016-11-10T05:49:26.337Z,1004.74
2016-11-10T05:50:26.948Z,1004.78
2016-11-10T05:51:27.591Z,1004.86
2016-11-10T05:52:28.201Z,1004.81
2016-11-10T05:53:28.810Z,1004.81
2016-11-10T05:54:29.420Z,1004.84
2016-11-10T05:55:30.045Z,1004.84
2016-11-10T05:56:30.665Z,1004.88
2016-11-10T05:57:31.410Z,1004.85
2016-11-10T05:58:32.011Z,1004.87
2016-11-10T05:59:32.621Z,1004.86
2016-11-10T06:00:33.230Z,1004.92
2016-11-10T06:01:33.913Z,1004.91
2016-11-10T06:02:34.546Z,1004.92
2016-11-10T06:03:35.158Z,1004.92
2016-11-10T06:04:35.768Z,1004.97
2016-11-10T06:05:36.373Z,1004.98
2016-11-10T06:06:36.976Z,1004.99
2016-11-10T06:07:37.615Z,1004.97
2016-11-10T06:08:38.286Z,1005.01
2016-11-10T06:09:38.896Z,1004.98
2016-11-10T06:10:39.511Z,1005.05
2016-11-10T06:11:40.116Z,1005.07
2016-11-10T06:12:40.737Z,1005.07
2016-11-10T06:13:41.363Z,1005.08
2016-11-10T06:14:41.991Z,1005.07
2016-11-10T06:15:42.604Z,1005.1
2016-11-10T06:16:43.226Z,1005.08
2016-11-10T06:17:43.841Z,1005.14
2016-11-10T06:18:44.448Z,1005.13
2016-11-10T06:19:45.055Z,1005.17
2016-11-10T06:20:45.675Z,1005.15
2016-11-10T06:21:46.296Z,1005.11
2016-11-10T06:22:46.918Z,1005.14
2016-11-10T06:23:47.514Z,1005.18
2016-11-10T06:24:48.125Z,1005.16
2016-11-10T06:25:48.749Z,1005.18
2016-11-10T06:26:49.354Z,1005.19
2016-11-10T06:27:49.977Z,1005.23
2016-11-10T06:28:50.592Z,1005.22
2016-11-10T06:29:51.203Z,1005.23
2016-11-10T06:30:51.818Z,1005.25
2016-11-10T06:31:52.418Z,1005.28
2016-11-10T06:32:53.064Z,1005.36
2016-11-10T06:33:53.675Z,1005.37
2016-11-10T06:34:54.287Z,1005.35
2016-11-10T06:35:54.901Z,1005.37
2016-11-10T06:36:55.502Z,1005.42
2016-11-10T06:37:56.108Z,1005.44
2016-11-10T06:38:56.728Z,1005.5
2016-11-10T06:39:57.348Z,1005.46
2016-11-10T06:40:57.955Z,1005.39
2016-11-10T06:41:58.572Z,1005.46
2016-11-10T06:42:59.182Z,1005.45
2016-11-10T06:43:59.892Z,1005.49
2016-11-10T06:45:00.538Z,1005.44
2016-11-10T06:46:01.222Z,1005.47
2016-11-10T06:47:01.860Z,1005.45
2016-11-10T06:48:02.486Z,1005.48
2016-11-10T06:49:03.093Z,1005.49
2016-11-10T06:50:03.723Z,1005.52
2016-11-10T06:51:04.345Z,1005.55
2016-11-10T06:52:04.984Z,1005.53
2016-11-10T06:53:05.606Z,1005.57
2016-11-10T06:54:06.226Z,1005.59
2016-11-10T06:55:06.851Z,1005.58
2016-11-10T06:56:07.466Z,1005.61
2016-11-10T06:57:08.075Z,1005.61
2016-11-10T06:58:08.689Z,1005.63
2016-11-10T06:59:09.300Z,1005.65
2016-11-10T07:00:09.914Z,1005.68
2016-11-10T07:01:10.513Z,1005.69
2016-11-10T07:02:11.147Z,1005.72
2016-11-10T07:03:11.765Z,1005.71
2016-11-10T07:04:12.518Z,1005.74
2016-11-10T07:05:13.123Z,1005.8
2016-11-10T07:06:13.797Z,1005.81
2016-11-10T07:07:14.402Z,1005.8
2016-11-10T07:08:15.139Z,1005.83
2016-11-10T07:09:15.811Z,1005.85
2016-11-10T07:10:16.445Z,1005.84
2016-11-10T07:11:17.066Z,1005.83
2016-11-10T07:12:17.719Z,1005.84
2016-11-10T07:13:18.317Z,1005.82
2016-11-10T07:14:18.940Z,1005.85
2016-11-10T07:15:19.590Z,1005.88
2016-11-10T07:16:20.255Z,1005.9
2016-11-10T07:17:20.921Z,1005.86
2016-11-10T07:18:21.532Z,1005.87
2016-11-10T07:19:22.142Z,1005.88
2016-11-10T07:20:22.773Z,1005.91
2016-11-10T07:21:23.383Z,1005.94
2016-11-10T07:22:23.998Z,1005.93
2016-11-10T07:23:24.604Z,1005.95
2016-11-10T07:24:25.212Z,1005.98
2016-11-10T07:25:25.819Z,1006.01
2016-11-10T07:26:26.424Z,1006.03
2016-11-10T07:27:27.042Z,1006.01
2016-11-10T07:28:27.673Z,1006.04
2016-11-10T07:29:28.292Z,1006
2016-11-10T07:30:28.917Z,1006.01
2016-11-10T07:31:29.525Z,1006.02
2016-11-10T07:32:30.132Z,1006.02
2016-11-10T07:33:30.739Z,1006.07
2016-11-10T07:34:31.350Z,1006.04
2016-11-10T07:35:31.962Z,1006.09
2016-11-10T07:36:32.565Z,1006.1
2016-11-10T07:37:33.187Z,1006.12
2016-11-10T07:38:33.831Z,1006.15
2016-11-10T07:39:34.439Z,1006.19
2016-11-10T07:40:35.048Z,1006.17
2016-11-10T07:41:35.732Z,1006.16
2016-11-10T07:42:36.420Z,1006.18
2016-11-10T07:43:37.177Z,1006.16
2016-11-10T07:44:37.765Z,1006.16
2016-11-10T07:45:38.396Z,1006.17
2016-11-10T07:46:39.020Z,1006.17
2016-11-10T07:47:39.636Z,1006.21
2016-11-10T07:48:40.258Z,1006.25
2016-11-10T07:49:40.916Z,1006.21
2016-11-10T07:50:41.527Z,1006.2
2016-11-10T07:51:42.179Z,1006.22
2016-11-10T07:52:42.805Z,1006.19
2016-11-10T07:53:43.419Z,1006.22
2016-11-10T07:54:47.125Z,1006.22
2016-11-10T07:55:47.982Z,1006.23
2016-11-10T07:56:48.599Z,1006.22
2016-11-10T07:57:49.211Z,1006.26
2016-11-10T07:58:49.827Z,1006.23
2016-11-10T07:59:50.430Z,1006.29
2016-11-10T08:00:51.046Z,1006.25
2016-11-10T08:01:51.676Z,1006.3
2016-11-10T08:02:52.299Z,1006.28
2016-11-10T08:03:52.906Z,1006.29
2016-11-10T08:04:53.527Z,1006.33
2016-11-10T08:05:54.157Z,1006.32
2016-11-10T08:06:54.828Z,1006.37
2016-11-10T08:07:55.656Z,1006.35
2016-11-10T08:08:56.308Z,1006.3
2016-11-10T08:09:56.915Z,1006.36
2016-11-10T08:10:57.532Z,1006.39
2016-11-10T08:11:58.137Z,1006.43
2016-11-10T08:12:58.758Z,1006.38
2016-11-10T08:13:59.370Z,1006.43
2016-11-10T08:14:59.983Z,1006.4
2016-11-10T08:16:00.601Z,1006.4
2016-11-10T08:17:01.216Z,1006.4
2016-11-10T08:18:01.820Z,1006.41
2016-11-10T08:19:02.446Z,1006.41
2016-11-10T08:20:03.050Z,1006.45
2016-11-10T08:21:03.664Z,1006.41
2016-11-10T08:22:04.275Z,1006.45
2016-11-10T08:23:04.916Z,1006.46
2016-11-10T08:24:05.563Z,1006.48
2016-11-10T08:25:06.183Z,1006.46
2016-11-10T08:26:06.869Z,1006.47
2016-11-10T08:27:07.536Z,1006.52
2016-11-10T08:28:08.233Z,1006.49
2016-11-10T08:29:08.882Z,1006.54
2016-11-10T08:30:09.507Z,1006.54
2016-11-10T08:31:10.123Z,1006.5
2016-11-10T08:32:10.735Z,1006.54
2016-11-10T08:33:11.360Z,1006.56
2016-11-10T08:34:11.971Z,1006.57
2016-11-10T08:35:12.580Z,1006.58
2016-11-10T08:36:13.199Z,1006.56
2016-11-10T08:37:13.826Z,1006.57
2016-11-10T08:38:14.437Z,1006.61
2016-11-10T08:39:15.051Z,1006.62
2016-11-10T08:40:15.658Z,1006.62
2016-11-10T08:41:16.305Z,1006.69
2016-11-10T08:42:16.925Z,1006.65
2016-11-10T08:43:17.546Z,1006.63
2016-11-10T08:44:18.189Z,1006.67
2016-11-10T08:45:18.812Z,1006.66
2016-11-10T08:46:19.436Z,1006.66
2016-11-10T08:47:20.048Z,1006.66
2016-11-10T08:48:20.675Z,1006.68
2016-11-10T08:49:21.328Z,1006.68
2016-11-10T08:50:21.942Z,1006.7
2016-11-10T08:51:22.617Z,1006.73
2016-11-10T08:52:23.246Z,1006.76
2016-11-10T08:53:23.888Z,1006.74
2016-11-10T08:54:24.686Z,1006.73
2016-11-10T08:55:25.310Z,1006.74
2016-11-10T08:56:25.940Z,1006.79
2016-11-10T08:57:26.562Z,1006.76
2016-11-10T08:58:27.237Z,1006.78
2016-11-10T08:59:27.860Z,1006.79
2016-11-10T09:00:28.471Z,1006.79
2016-11-10T09:01:29.083Z,1006.77
2016-11-10T09:02:29.696Z,1006.77
2016-11-10T09:03:30.305Z,1006.75
2016-11-10T09:04:30.965Z,1006.8
2016-11-10T09:05:31.578Z,1006.81
2016-11-10T09:06:32.188Z,1006.78
2016-11-10T09:07:32.871Z,1006.85
2016-11-10T09:08:33.571Z,1006.85
2016-11-10T09:09:34.208Z,1006.86
2016-11-10T09:10:34.825Z,1006.79
2016-11-10T09:11:35.451Z,1006.86
2016-11-10T09:12:36.066Z,1006.85
2016-11-10T09:13:36.676Z,1006.87
2016-11-10T09:14:37.288Z,1006.89
2016-11-10T09:15:37.903Z,1006.9
2016-11-10T09:16:38.516Z,1006.87
2016-11-10T09:17:39.131Z,1006.89
2016-11-10T09:18:39.880Z,1006.9
2016-11-10T09:19:40.514Z,1006.9
2016-11-10T09:20:41.126Z,1006.88
2016-11-10T09:21:41.729Z,1006.89
2016-11-10T09:22:42.339Z,1006.89
2016-11-10T09:23:42.957Z,1006.88
2016-11-10T09:24:43.587Z,1006.92
2016-11-10T09:25:44.206Z,1006.9
2016-11-10T09:26:44.821Z,1006.9
2016-11-10T09:27:45.436Z,1006.89
2016-11-10T09:28:46.083Z,1006.9
2016-11-10T09:29:46.748Z,1006.9
2016-11-10T09:30:47.355Z,1006.9
2016-11-10T09:31:47.961Z,1006.92
2016-11-10T09:32:48.587Z,1006.88
2016-11-10T09:33:49.242Z,1006.91
2016-11-10T09:34:49.868Z,1006.91
2016-11-10T09:35:50.482Z,1006.92
2016-11-10T09:36:51.102Z,1006.92
2016-11-10T09:37:51.711Z,1006.95
2016-11-10T09:38:52.335Z,1006.92
2016-11-10T09:39:52.949Z,1006.98
2016-11-10T09:40:53.571Z,1006.97
2016-11-10T09:41:54.178Z,1006.97
2016-11-10T09:42:54.796Z,1006.96
2016-11-10T09:43:55.419Z,1006.99
2016-11-10T09:44:56.042Z,1006.98
2016-11-10T09:45:56.661Z,1007.01
2016-11-10T09:46:57.282Z,1006.98
2016-11-10T09:47:57.890Z,1007
2016-11-10T09:48:58.504Z,1006.99
2016-11-10T09:49:59.116Z,1007.05
2016-11-10T09:50:59.724Z,1007.03
2016-11-10T09:52:00.347Z,1007
2016-11-10T09:53:00.968Z,1007.01
2016-11-10T09:54:01.591Z,1007.05
2016-11-10T09:55:02.213Z,1007.07
2016-11-10T09:56:02.833Z,1007.04
2016-11-10T09:57:03.433Z,1007.08
2016-11-10T09:58:04.044Z,1007.06
2016-11-10T09:59:04.644Z,1007.04
2016-11-10T10:00:05.262Z,1007.07
2016-11-10T10:01:05.872Z,1007.05
2016-11-10T10:02:06.480Z,1007.02
2016-11-10T10:03:07.086Z,1007.06
2016-11-10T10:04:07.706Z,1007.08
2016-11-10T10:05:08.322Z,1007.06
2016-11-10T10:06:08.931Z,1007.03
2016-11-10T10:07:09.544Z,1007.06
2016-11-10T10:08:10.144Z,1007.08
2016-11-10T10:09:10.764Z,1007.04
2016-11-10T10:10:11.369Z,1007.07
2016-11-10T10:11:12.001Z,1007.08
2016-11-10T10:12:12.613Z,1007.06
2016-11-10T10:13:13.246Z,1007.05
2016-11-10T10:14:13.878Z,1007.08
2016-11-10T10:15:14.498Z,1007.09
2016-11-10T10:16:15.109Z,1007.09
2016-11-10T10:17:15.747Z,1007.11
2016-11-10T10:18:16.369Z,1007.11
2016-11-10T10:19:16.987Z,1007.12
2016-11-10T10:20:17.611Z,1007.1
2016-11-10T10:21:18.234Z,1007.07
2016-11-10T10:22:18.839Z,1007.09
2016-11-10T10:23:19.467Z,1007.13
2016-11-10T10:24:20.082Z,1007.12
2016-11-10T10:25:20.690Z,1007.1
2016-11-10T10:26:21.293Z,1007.1
2016-11-10T10:27:21.907Z,1007.12
2016-11-10T10:28:22.522Z,1007.07
2016-11-10T10:29:23.199Z,1007.08
2016-11-10T10:30:23.921Z,1007.12
2016-11-10T10:31:24.537Z,1007.11
2016-11-10T10:32:25.153Z,1007.13
2016-11-10T10:33:25.759Z,1007.15
2016-11-10T10:34:26.384Z,1007.13
2016-11-10T10:35:27.000Z,1007.11
2016-11-10T10:36:27.617Z,1007.1
2016-11-10T10:37:28.224Z,1007.1
2016-11-10T10:38:28.847Z,1007.1
2016-11-10T10:39:29.475Z,1007.1
2016-11-10T10:40:30.105Z,1007.08
2016-11-10T10:41:30.750Z,1007.06
2016-11-10T10:42:31.476Z,1007.01
2016-11-10T10:43:32.240Z,1007.03
2016-11-10T10:44:32.853Z,1006.97
2016-11-10T10:45:33.540Z,1006.96
2016-11-10T10:46:34.159Z,1006.97
2016-11-10T10:47:34.780Z,1006.96
2016-11-10T10:48:35.400Z,1006.95
2016-11-10T10:49:36.106Z,1006.94
2016-11-10T10:50:36.782Z,1006.97
2016-11-10T10:51:37.393Z,1007
2016-11-10T10:52:38.047Z,1007
2016-11-10T10:53:38.672Z,1006.96
2016-11-10T10:54:39.291Z,1006.96
2016-11-10T10:55:39.907Z,1006.97
2016-11-10T10:56:40.516Z,1006.96
2016-11-10T10:57:41.120Z,1006.96
2016-11-10T10:58:41.731Z,1006.96
2016-11-10T10:59:42.377Z,1006.98
2016-11-10T11:00:42.999Z,1007
2016-11-10T11:01:43.620Z,1006.99
2016-11-10T11:02:44.258Z,1006.96
2016-11-10T11:03:44.863Z,1006.96
2016-11-10T11:04:45.485Z,1006.99
2016-11-10T11:05:46.111Z,1006.97
2016-11-10T11:06:46.729Z,1006.95
2016-11-10T11:07:47.411Z,1006.95
2016-11-10T11:08:48.023Z,1006.98
2016-11-10T11:09:48.657Z,1006.95
2016-11-10T11:10:49.274Z,1006.99
2016-11-10T11:11:49.885Z,1006.98
2016-11-10T11:12:50.492Z,1006.96
2016-11-10T11:13:51.112Z,1007
2016-11-10T11:14:51.722Z,1006.98
2016-11-10T11:15:52.330Z,1007.03
2016-11-10T11:16:52.929Z,1007.03
2016-11-10T11:17:53.539Z,1007.06
2016-11-10T11:18:54.170Z,1007.05
2016-11-10T11:19:54.795Z,1007.1
2016-11-10T11:20:55.424Z,1007.06
2016-11-10T11:21:56.037Z,1007.1
2016-11-10T11:22:56.676Z,1007.05
2016-11-10T11:23:57.293Z,1007.08
2016-11-10T11:24:57.912Z,1007.11
2016-11-10T11:25:58.519Z,1007.09
2016-11-10T11:26:59.136Z,1007.07
2016-11-10T11:27:59.752Z,1007.11
2016-11-10T11:29:00.368Z,1007.09
2016-11-10T11:30:00.985Z,1007.09
2016-11-10T11:31:01.594Z,1007.05
2016-11-10T11:32:02.206Z,1007.09
2016-11-10T11:33:02.852Z,1007.1
2016-11-10T11:34:03.510Z,1007.06
2016-11-10T11:35:04.127Z,1007.09
2016-11-10T11:36:04.757Z,1007.12
2016-11-10T11:37:05.374Z,1007.09
2016-11-10T11:38:06.073Z,1007.1
2016-11-10T11:39:06.727Z,1007.06
2016-11-10T11:40:07.384Z,1007.06
2016-11-10T11:41:08.025Z,1007.07
2016-11-10T11:42:08.647Z,1007.07
2016-11-10T11:43:09.267Z,1007.07
2016-11-10T11:44:09.905Z,1007.06
2016-11-10T11:45:10.535Z,1007.05
2016-11-10T11:46:11.189Z,1007.07
2016-11-10T11:47:11.938Z,1007.06
2016-11-10T11:48:12.634Z,1007.08
2016-11-10T11:49:13.336Z,1007.12
2016-11-10T11:50:14.005Z,1007.06
2016-11-10T11:51:14.668Z,1007.06
2016-11-10T11:52:15.283Z,1007.07
2016-11-10T11:53:15.900Z,1007.11
2016-11-10T11:54:16.511Z,1007.08
2016-11-10T11:55:17.146Z,1007.11
2016-11-10T11:56:17.810Z,1007.11
2016-11-10T11:57:18.507Z,1007.09
2016-11-10T11:58:19.185Z,1007.14
2016-11-10T11:59:19.822Z,1007.07
2016-11-10T12:00:20.438Z,1007.12
2016-11-10T12:01:21.049Z,1007.08
2016-11-10T12:02:21.684Z,1007.09
2016-11-10T12:03:22.304Z,1007.1
2016-11-10T12:04:22.989Z,1007.09
2016-11-10T12:05:23.621Z,1007.1
2016-11-10T12:06:24.233Z,1007.11
2016-11-10T12:07:24.874Z,1007.09
2016-11-10T12:08:25.568Z,1007.13
2016-11-10T12:09:26.171Z,1007.07
2016-11-10T12:10:26.797Z,1007.11
2016-11-10T12:11:27.423Z,1007.13
2016-11-10T12:12:28.038Z,1007.11
2016-11-10T12:13:28.660Z,1007.1
2016-11-10T12:14:29.285Z,1007.08
2016-11-10T12:15:29.908Z,1007.08
2016-11-10T12:16:30.524Z,1007.08
2016-11-10T12:17:31.268Z,1007.12